Time;durP1;ratioP1;P1;durP2;ratioP2;P2;SDS_P1;SDS_P2;PMS_P1;PMS_P2;Temp;Humidity;BMP_temperature;BMP_pressure;BME280_temperature;BME280_humidity;BME280_pressure;Samples;Min_cycle;Max_cycle;Signal;HPM_P1;HPM_P2
2022/04/19 00:00:18;;;;;;;2.60;2.10;;;;;;;;;;12300898;29;20046;-79
2022/04/19 00:06:20;;;;;;;2.63;2.10;;;;;;;;;;12284521;29;20032;-79
2022/04/19 00:12:22;;;;;;;1.77;1.67;;;;;;;;;;12284414;29;20047;-79
2022/04/19 00:18:25;;;;;;;2.28;2.08;;;;;;;;;;12312725;28;20032;-79
2022/04/19 00:24:28;;;;;;;;;;;;;;;;;;12301015;29;20043;-79
2022/04/19 00:30:29;;;;;;;2.67;2.47;;;;;;;;;;12315141;28;20291;-79
2022/04/19 00:36:31;;;;;;;3.25;2.33;;;;;;;;;;12283385;29;20058;-79
2022/04/19 00:42:33;;;;;;;3.70;2.28;;;;;;;;;;12283594;29;20408;-79
2022/04/19 00:48:35;;;;;;;2.45;2.25;;;;;;;;;;12303353;28;20043;-79
2022/04/19 00:54:37;;;;;;;2.60;2.40;;;;;;;;;;12292148;29;20047;-79
2022/04/19 01:00:39;;;;;;;2.60;2.40;;;;;;;;;;12308724;29;20039;-79
2022/04/19 01:06:45;;;;;;;2.55;2.35;;;;;;;;;;12291761;29;20042;-79
2022/04/19 01:19:15;;;;;;;2.45;2.25;;;;;;;;;;12290792;29;20039;-79
2022/04/19 01:25:20;;;;;;;2.53;2.33;;;;;;;;;;12290373;29;20031;-79
2022/04/19 01:31:22;;;;;;;2.28;2.08;;;;;;;;;;12307659;29;20610;-79
2022/04/19 01:37:25;;;;;;;2.53;2.33;;;;;;;;;;12289897;29;20047;-79
2022/04/19 01:43:28;;;;;;;2.50;2.33;;;;;;;;;;12290675;29;20066;-79
2022/04/19 01:49:37;;;;;;;2.65;2.45;;;;;;;;;;12289143;29;20035;-79
2022/04/19 01:55:39;;;;;;;2.60;2.40;;;;;;;;;;12288593;28;20051;-79
2022/04/19 02:01:51;;;;;;;2.77;2.57;;;;;;;;;;12289081;29;20054;-79
2022/04/19 02:07:53;;;;;;;2.42;2.25;;;;;;;;;;12291740;29;20054;-79
2022/04/19 02:13:56;;;;;;;2.67;2.47;;;;;;;;;;12300918;29;20047;-79
2022/04/19 02:20:07;;;;;;;2.60;2.40;;;;;;;;;;12305384;29;20043;-79
2022/04/19 02:26:09;;;;;;;3.53;3.23;;;;;;;;;;12287998;29;20031;-79
2022/04/19 02:32:13;;;;;;;;;;;;;;;;;;12288496;29;20051;-78
2022/04/19 02:38:14;;;;;;;2.72;2.53;;;;;;;;;;12319202;28;20314;-79
2022/04/19 02:44:22;;;;;;;2.88;2.60;;;;;;;;;;12286635;29;20333;-79
2022/04/19 02:50:47;;;;;;;3.22;3.03;;;;;;;;;;12286648;29;20039;-79
2022/04/19 02:56:49;;;;;;;;;;;;;;;;;;12299952;28;20034;-79
2022/04/19 03:02:51;;;;;;;3.63;3.22;;;;;;;;;;12289136;28;19919;-79
2022/04/19 03:08:54;;;;;;;3.08;2.72;;;;;;;;;;12286734;28;20050;-79
2022/04/19 03:14:56;;;;;;;3.00;2.80;;;;;;;;;;12285772;29;20039;-79
2022/04/19 03:20:59;;;;;;;3.70;3.30;;;;;;;;;;12284867;29;20043;-79
2022/04/19 03:33:22;;;;;;;2.60;2.40;;;;;;;;;;12285395;28;20051;-79
2022/04/19 03:39:25;;;;;;;3.38;2.95;;;;;;;;;;12295370;28;20043;-79
2022/04/19 03:45:27;;;;;;;3.40;3.05;;;;;;;;;;12289531;28;20047;-79
2022/04/19 03:51:28;;;;;;;3.67;3.13;;;;;;;;;;12283934;29;20480;-79
2022/04/19 03:57:30;;;;;;;3.63;3.30;;;;;;;;;;12301943;29;20043;-79
2022/04/19 04:03:32;;;;;;;2.95;2.75;;;;;;;;;;12283977;29;20047;-79
2022/04/19 04:09:35;;;;;;;3.20;2.77;;;;;;;;;;12283724;29;20046;-79
2022/04/19 04:15:37;;;;;;;;;;;;;;;;;;12284371;29;20080;-79
2022/04/19 04:21:39;;;;;;;3.10;2.80;;;;;;;;;;12303016;28;19921;-79
2022/04/19 04:27:41;;;;;;;2.85;2.65;;;;;;;;;;12292724;29;20039;-79
2022/04/19 04:33:42;;;;;;;3.70;3.40;;;;;;;;;;12292589;29;20051;-78
2022/04/19 04:39:44;;;;;;;4.10;3.08;;;;;;;;;;12292159;29;20051;-79
2022/04/19 04:52:36;;;;;;;3.60;3.30;;;;;;;;;;12291487;29;20051;-79
2022/04/19 04:58:38;;;;;;;3.67;3.38;;;;;;;;;;12291622;29;20034;-79
2022/04/19 05:04:40;;;;;;;4.10;3.70;;;;;;;;;;12309388;29;20043;-79
2022/04/19 05:10:42;;;;;;;3.58;3.28;;;;;;;;;;12308177;29;20035;-79
2022/04/19 05:16:51;;;;;;;4.03;3.72;;;;;;;;;;12290573;29;20484;-79
2022/04/19 05:22:53;;;;;;;4.05;3.75;;;;;;;;;;12290618;29;20039;-79
2022/04/19 05:28:55;;;;;;;4.53;3.90;;;;;;;;;;12290550;29;20401;-78
2022/04/19 05:34:57;;;;;;;5.20;4.13;;;;;;;;;;12290740;29;20047;-79
2022/04/19 05:40:59;;;;;;;3.92;3.63;;;;;;;;;;12290539;29;20047;-79
2022/04/19 05:47:01;;;;;;;4.25;3.63;;;;;;;;;;12290674;29;20054;-79
2022/04/19 05:53:03;;;;;;;4.38;4.05;;;;;;;;;;12290085;29;20051;-79
2022/04/19 05:59:05;;;;;;;4.03;3.73;;;;;;;;;;12290137;29;20038;-78
2022/04/19 06:05:08;;;;;;;;;;;;;;;;;;12290869;29;20043;-78
2022/04/19 06:11:12;;;;;;;3.90;3.60;;;;;;;;;;12305466;29;19921;-77
2022/04/19 06:17:17;;;;;;;4.70;4.30;;;;;;;;;;12289325;29;20048;-78
2022/04/19 06:23:19;;;;;;;4.15;3.85;;;;;;;;;;12289588;29;20042;-78
2022/04/19 06:29:21;;;;;;;3.80;3.50;;;;;;;;;;12304370;28;20023;-78
2022/04/19 06:35:28;;;;;;;4.50;4.10;;;;;;;;;;12288918;29;20485;-78
2022/04/19 06:41:30;;;;;;;4.53;4.13;;;;;;;;;;12288556;29;20055;-78
2022/04/19 06:47:34;;;;;;;5.47;4.97;;;;;;;;;;12286092;29;20031;-77
2022/04/19 06:53:36;;;;;;;5.43;4.93;;;;;;;;;;12302699;28;20047;-78
2022/04/19 07:00:05;;;;;;;4.70;4.30;;;;;;;;;;12284766;29;20058;-78
2022/04/19 07:06:07;;;;;;;5.50;4.75;;;;;;;;;;12286858;29;20047;-78
2022/04/19 07:12:10;;;;;;;3.85;3.55;;;;;;;;;;12285599;29;20031;-78
2022/04/19 07:18:35;;;;;;;4.25;3.85;;;;;;;;;;12280636;29;20043;-77
2022/04/19 07:30:58;;;;;;;3.30;3.00;;;;;;;;;;12301754;28;19914;-78
2022/04/19 07:37:01;;;;;;;4.30;3.55;;;;;;;;;;12285057;29;20047;-77
2022/04/19 07:43:05;;;;;;;3.63;2.95;;;;;;;;;;12285552;29;20054;-78
2022/04/19 07:49:06;;;;;;;4.33;3.53;;;;;;;;;;12293027;28;20031;-78
2022/04/19 07:55:09;;;;;;;2.97;2.78;;;;;;;;;;12292474;29;20051;-78
2022/04/19 08:01:11;;;;;;;3.77;2.50;;;;;;;;;;12284202;29;20388;-78
2022/04/19 08:07:13;;;;;;;3.50;2.73;;;;;;;;;;12287001;29;20039;-78
2022/04/19 08:13:15;;;;;;;1.98;1.88;;;;;;;;;;12283330;29;20051;-77
2022/04/19 08:19:17;;;;;;;1.73;1.63;;;;;;;;;;12300721;29;20404;-77
2022/04/19 08:25:21;;;;;;;3.85;1.85;;;;;;;;;;12283997;29;20508;-78
2022/04/19 08:31:22;;;;;;;1.77;1.23;;;;;;;;;;12283637;29;20042;-78
2022/04/19 08:37:29;;;;;;;1.55;1.40;;;;;;;;;;12283728;29;20063;-77
2022/04/19 08:43:31;;;;;;;2.00;1.90;;;;;;;;;;12317282;28;20055;-80
2022/04/19 08:49:38;;;;;;;1.73;1.60;;;;;;;;;;12282611;29;20050;-78
2022/04/19 09:02:00;;;;;;;1.70;1.00;;;;;;;;;;12299469;29;20039;-79
2022/04/19 09:08:03;;;;;;;2.03;1.20;;;;;;;;;;12287262;28;20051;-78
2022/04/19 09:14:07;;;;;;;1.80;1.13;;;;;;;;;;12290551;29;20492;-78
2022/04/19 09:20:13;;;;;;;1.20;1.10;;;;;;;;;;12308412;29;20039;-79
2022/04/19 09:26:15;;;;;;;1.52;1.10;;;;;;;;;;12290764;29;20031;-79
2022/04/19 09:32:16;;;;;;;1.75;1.00;;;;;;;;;;12307412;28;20034;-79
2022/04/19 09:38:18;;;;;;;2.33;1.87;;;;;;;;;;12298978;28;20017;-79
2022/04/19 09:44:21;;;;;;;1.80;1.30;;;;;;;;;;12314391;28;20042;-79
2022/04/19 09:50:23;;;;;;;1.92;1.38;;;;;;;;;;12289105;29;20294;-79
2022/04/19 09:56:33;;;;;;;2.33;0.97;;;;;;;;;;12306144;29;20507;-79
2022/04/19 10:08:58;;;;;;;2.10;1.65;;;;;;;;;;12305427;29;20040;-78
2022/04/19 10:15:00;;;;;;;1.50;1.40;;;;;;;;;;12305027;29;20043;-78
2022/04/19 10:21:03;;;;;;;1.70;1.58;;;;;;;;;;12304850;28;20380;-78
2022/04/19 10:27:10;;;;;;;2.15;1.63;;;;;;;;;;12301749;28;20042;-79
2022/04/19 10:33:31;;;;;;;1.77;1.55;;;;;;;;;;12289086;29;20062;-78
2022/04/19 10:39:33;;;;;;;1.48;1.38;;;;;;;;;;12286835;29;20055;-79
2022/04/19 10:45:37;;;;;;;1.48;1.10;;;;;;;;;;12287164;29;20035;-79
2022/04/19 10:51:38;;;;;;;2.60;1.70;;;;;;;;;;12288361;29;20043;-78
2022/04/19 11:04:11;;;;;;;5.60;2.10;;;;;;;;;;12286720;29;20054;-78
2022/04/19 11:10:13;;;;;;;1.80;1.70;;;;;;;;;;12303589;29;20035;-78
2022/04/19 11:16:15;;;;;;;1.60;1.27;;;;;;;;;;12302922;29;20047;-78
2022/04/19 11:22:38;;;;;;;1.50;1.40;;;;;;;;;;12285570;29;20368;-78
2022/04/19 11:28:40;;;;;;;;;;;;;;;;;;12285573;28;20034;-78
2022/04/19 11:34:56;;;;;;;1.40;1.30;;;;;;;;;;12303205;29;19933;-79
2022/04/19 11:47:22;;;;;;;1.23;1.15;;;;;;;;;;12300436;28;20063;-78
2022/04/19 11:53:25;;;;;;;1.87;1.77;;;;;;;;;;12284421;29;20047;-79
2022/04/19 11:59:28;;;;;;;1.33;1.15;;;;;;;;;;12301176;29;20028;-79
2022/04/19 12:05:30;;;;;;;2.50;1.90;;;;;;;;;;12304975;28;20042;-78
2022/04/19 12:11:32;;;;;;;;;;;;;;;;;;12283840;29;20050;-79
2022/04/19 12:17:43;;;;;;;1.30;1.20;;;;;;;;;;12283645;29;19918;-78
2022/04/19 12:23:51;;;;;;;1.35;0.85;;;;;;;;;;12283123;29;20485;-79
2022/04/19 12:30:12;;;;;;;2.17;1.50;;;;;;;;;;12300519;29;20046;-79
2022/04/19 13:23:30;;;;;;;1.80;1.30;;;;;;;;;;12307616;29;20043;-79
2022/04/19 13:43:13;;;;;;;3.53;1.98;;;;;;;;;;12306622;29;20412;-79
2022/04/19 13:49:34;;;;;;;2.38;2.17;;;;;;;;;;12300790;28;20102;-79
2022/04/19 14:02:32;;;;;;;2.05;1.90;;;;;;;;;;12306084;28;20058;-79
2022/04/19 14:22:30;;;;;;;1.92;1.42;;;;;;;;;;12305241;29;20039;-79
2022/04/19 15:23:00;;;;;;;3.72;1.90;;;;;;;;;;12302425;29;20403;-79
2022/04/19 16:02:36;;;;;;;1.88;1.50;;;;;;;;;;12301192;29;20043;-77
2022/04/19 16:08:39;;;;;;;1.23;1.10;;;;;;;;;;12301715;29;20027;-81
2022/04/19 16:14:41;;;;;;;1.08;1.00;;;;;;;;;;12283974;28;20051;-78
2022/04/19 16:27:06;;;;;;;2.35;1.10;;;;;;;;;;12312103;29;20154;-79
2022/04/19 16:33:08;;;;;;;1.77;1.20;;;;;;;;;;12304644;28;20039;-79
2022/04/19 16:39:10;;;;;;;1.85;1.42;;;;;;;;;;12293116;29;20047;-81
2022/04/19 16:45:12;;;;;;;1.97;1.50;;;;;;;;;;12293777;29;20043;-80
2022/04/19 16:51:15;;;;;;;1.87;1.73;;;;;;;;;;12304007;28;20308;-81
2022/04/19 16:57:16;;;;;;;2.17;1.38;;;;;;;;;;12310111;29;20039;-79
2022/04/19 17:09:38;;;;;;;2.13;1.52;;;;;;;;;;12292296;29;20278;-82
2022/04/19 17:15:42;;;;;;;1.30;1.05;;;;;;;;;;12291485;29;20781;-82
2022/04/19 17:21:44;;;;;;;2.83;1.38;;;;;;;;;;12308761;29;20043;-80
2022/04/19 17:27:46;;;;;;;3.47;1.57;;;;;;;;;;12302880;28;20039;-79
2022/04/19 17:33:48;;;;;;;1.83;1.17;;;;;;;;;;12290725;29;20047;-80
2022/04/19 17:39:50;;;;;;;2.20;1.80;;;;;;;;;;12290378;29;20050;-77
2022/04/19 17:45:51;;;;;;;1.70;1.60;;;;;;;;;;12306885;29;20038;-79
2022/04/19 17:58:13;;;;;;;2.10;1.90;;;;;;;;;;12293130;29;20484;-78
2022/04/19 18:04:16;;;;;;;3.60;2.28;;;;;;;;;;12300881;28;20028;-78
2022/04/19 18:10:17;;;;;;;2.47;2.13;;;;;;;;;;12305866;29;20039;-78
2022/04/19 18:16:19;;;;;;;1.70;1.60;;;;;;;;;;12288646;29;20051;-78
2022/04/19 18:28:43;;;;;;;3.63;2.60;;;;;;;;;;12288020;29;20047;-78
2022/04/19 18:34:45;;;;;;;2.78;2.20;;;;;;;;;;12288075;29;20058;-78
2022/04/19 18:40:47;;;;;;;2.42;2.20;;;;;;;;;;12312156;28;20051;-78
2022/04/19 18:46:49;;;;;;;2.13;1.73;;;;;;;;;;12286672;29;20031;-78
2022/04/19 18:52:50;;;;;;;3.42;2.30;;;;;;;;;;12303410;29;20039;-78
2022/04/19 18:58:52;;;;;;;2.10;1.90;;;;;;;;;;12286119;29;20065;-79
2022/04/19 19:04:54;;;;;;;2.33;2.13;;;;;;;;;;12298561;28;20043;-79
2022/04/19 19:10:56;;;;;;;3.83;3.15;;;;;;;;;;12287270;29;20027;-78
2022/04/19 19:16:57;;;;;;;3.67;2.83;;;;;;;;;;12285626;29;20054;-78
2022/04/19 19:22:59;;;;;;;3.25;2.40;;;;;;;;;;12302593;29;20027;-79
2022/04/19 19:29:02;;;;;;;4.07;3.10;;;;;;;;;;12302840;29;20418;-78
2022/04/19 19:35:04;;;;;;;;;;;;;;;;;;12296373;29;20055;-79
2022/04/19 19:41:06;;;;;;;2.70;2.42;;;;;;;;;;12285831;29;19918;-77
2022/04/19 19:47:07;;;;;;;2.30;2.10;;;;;;;;;;12301474;29;20404;-78
2022/04/19 19:53:09;;;;;;;4.63;3.38;;;;;;;;;;12311612;28;20031;-79
2022/04/19 19:59:11;;;;;;;3.85;3.40;;;;;;;;;;12283798;29;20046;-79
2022/04/19 20:05:13;;;;;;;3.83;2.90;;;;;;;;;;12284557;29;20051;-78
2022/04/19 20:11:15;;;;;;;2.85;2.58;;;;;;;;;;12283797;29;20531;-79
2022/04/19 20:17:17;;;;;;;3.40;2.57;;;;;;;;;;12283864;29;20051;-78
2022/04/19 20:23:19;;;;;;;5.28;3.22;;;;;;;;;;12283792;29;20134;-78
2022/04/19 20:29:20;;;;;;;2.50;2.30;;;;;;;;;;12284206;29;20476;-78
2022/04/19 20:35:22;;;;;;;2.72;2.05;;;;;;;;;;12283675;29;20051;-78
2022/04/19 20:41:24;;;;;;;4.10;2.85;;;;;;;;;;12283070;29;20074;-78
2022/04/19 20:53:46;;;;;;;3.20;2.70;;;;;;;;;;12300139;29;20043;-78
2022/04/19 20:59:49;;;;;;;4.10;3.05;;;;;;;;;;12299980;29;20039;-78
2022/04/19 21:05:52;;;;;;;3.60;3.03;;;;;;;;;;12307560;28;20035;-78
2022/04/19 21:11:54;;;;;;;2.65;2.45;;;;;;;;;;12308348;29;20043;-78
2022/04/19 21:17:56;;;;;;;3.37;2.73;;;;;;;;;;12308605;29;20054;-77
2022/04/19 21:23:58;;;;;;;3.63;3.33;;;;;;;;;;12308127;29;20639;-77
2022/04/19 21:30:01;;;;;;;;;;;;;;;;;;12290914;29;20051;-78
2022/04/19 21:36:03;;;;;;;3.10;2.85;;;;;;;;;;12291084;29;19922;-78
2022/04/19 21:42:05;;;;;;;2.70;2.45;;;;;;;;;;12290088;29;20055;-77
2022/04/19 21:48:06;;;;;;;4.93;3.13;;;;;;;;;;12290046;29;20034;-78
2022/04/19 21:54:08;;;;;;;5.13;3.30;;;;;;;;;;12289370;29;20039;-78
2022/04/19 22:00:16;;;;;;;3.50;3.17;;;;;;;;;;12306016;29;20039;-78
2022/04/19 22:06:19;;;;;;;3.47;3.17;;;;;;;;;;12306769;29;20039;-77
2022/04/19 22:12:21;;;;;;;4.15;3.75;;;;;;;;;;12305877;28;20070;-77
2022/04/19 22:18:24;;;;;;;3.72;3.38;;;;;;;;;;12289035;29;20043;-78
2022/04/19 22:24:26;;;;;;;4.30;3.22;;;;;;;;;;12288868;29;20396;-77
2022/04/19 22:30:28;;;;;;;2.63;2.42;;;;;;;;;;12289226;29;20042;-77
2022/04/19 22:36:30;;;;;;;3.40;3.15;;;;;;;;;;12305927;29;20050;-78
2022/04/19 22:42:32;;;;;;;3.92;3.58;;;;;;;;;;12304363;29;20050;-77
2022/04/19 22:48:33;;;;;;;3.47;3.17;;;;;;;;;;12288201;29;20035;-77
2022/04/19 22:54:36;;;;;;;3.90;2.90;;;;;;;;;;12287253;29;20063;-78
2022/04/19 23:00:37;;;;;;;2.80;2.60;;;;;;;;;;12315926;28;20496;-78
2022/04/19 23:06:39;;;;;;;3.88;3.33;;;;;;;;;;12286981;29;20416;-78
2022/04/19 23:12:41;;;;;;;3.50;3.20;;;;;;;;;;12303157;29;20038;-77
2022/04/19 23:18:43;;;;;;;3.97;3.00;;;;;;;;;;12285744;29;20046;-77
2022/04/19 23:24:45;;;;;;;2.95;2.70;;;;;;;;;;12302501;28;20027;-77
2022/04/19 23:30:47;;;;;;;3.30;3.00;;;;;;;;;;12302834;29;20039;-78
2022/04/19 23:36:49;;;;;;;3.30;2.80;;;;;;;;;;12302803;29;20047;-78
2022/04/19 23:42:51;;;;;;;3.38;2.90;;;;;;;;;;12285573;29;20066;-78
2022/04/19 23:48:52;;;;;;;2.63;2.42;;;;;;;;;;12286531;29;20039;-77
2022/04/19 23:54:54;;;;;;;2.80;2.60;;;;;;;;;;12302804;29;20058;-77
